createdAt,value
2022-11-18T00:00:59.000Z,73.91
2022-11-18T00:03:28.295Z,73.83
2022-11-18T00:05:57.575Z,74.37
2022-11-18T00:08:26.665Z,74.04
2022-11-18T00:10:55.164Z,73.77
2022-11-18T00:13:40.575Z,73.99
2022-11-18T00:16:12.372Z,73.84
2022-11-18T00:18:41.671Z,73.80
2022-11-18T00:21:11.894Z,73.82
2022-11-18T00:23:40.751Z,74.76
2022-11-18T00:26:10.620Z,75.13
2022-11-18T00:28:38.634Z,74.89
2022-11-18T00:31:08.951Z,74.67
2022-11-18T00:33:37.927Z,75.79
2022-11-18T00:36:09.726Z,74.82
2022-11-18T00:38:37.759Z,74.57
2022-11-18T00:41:07.767Z,74.47
2022-11-18T00:43:35.612Z,74.84
2022-11-18T00:46:04.551Z,74.46
2022-11-18T00:48:32.502Z,74.63
2022-11-18T00:51:10.656Z,74.83
2022-11-18T00:53:38.804Z,75.53
2022-11-18T00:56:07.541Z,75.26
2022-11-18T00:58:35.672Z,76.02
2022-11-18T01:01:04.196Z,76.47
2022-11-18T01:03:32.312Z,76.98
2022-11-18T01:06:00.260Z,76.18
2022-11-18T01:08:29.564Z,75.80
2022-11-18T01:11:17.613Z,75.17
2022-11-18T01:13:44.651Z,75.11
2022-11-18T01:16:12.574Z,76.04
2022-11-18T01:18:40.484Z,75.57
2022-11-18T01:21:08.546Z,74.89
2022-11-18T01:23:37.825Z,75.51
2022-11-18T01:26:07.099Z,75.23
2022-11-18T01:28:35.104Z,75.05
2022-11-18T01:31:06.884Z,74.68
2022-11-18T01:33:35.194Z,75.94
2022-11-18T01:36:03.337Z,75.73
2022-11-18T01:38:31.257Z,75.66
2022-11-18T01:41:00.539Z,75.91
2022-11-18T01:43:52.779Z,75.64
2022-11-18T01:46:21.313Z,75.45
2022-11-18T01:48:53.345Z,75.22
2022-11-18T01:51:24.988Z,74.83
2022-11-18T01:54:00.130Z,74.39
2022-11-18T01:56:34.317Z,74.38
2022-11-18T01:59:06.748Z,74.02
2022-11-18T02:01:34.886Z,74.06
2022-11-18T02:04:03.148Z,73.89
2022-11-18T02:06:31.090Z,74.01
2022-11-18T02:08:59.113Z,73.43
2022-11-18T02:11:44.653Z,73.62
2022-11-18T02:14:14.641Z,75.24
2022-11-18T02:17:02.692Z,74.38
2022-11-18T02:19:56.818Z,74.42
2022-11-18T02:22:43.084Z,73.93
2022-11-18T02:25:23.562Z,74.21
2022-11-18T02:28:09.936Z,73.93
2022-11-18T02:30:46.211Z,73.97
2022-11-18T02:33:20.390Z,74.17
2022-11-18T02:35:52.960Z,74.48
2022-11-18T02:38:28.042Z,74.21
2022-11-18T02:41:00.714Z,74.03
2022-11-18T02:43:32.898Z,74.42
2022-11-18T02:46:07.801Z,74.37
2022-11-18T02:48:41.290Z,75.38
2022-11-18T02:51:11.475Z,76.28
2022-11-18T02:53:41.721Z,75.56
2022-11-18T02:56:11.440Z,75.61
2022-11-18T02:58:39.332Z,75.28
2022-11-18T03:01:17.684Z,75.15
2022-11-18T03:03:45.703Z,75.28
2022-11-18T03:06:25.851Z,74.98
2022-11-18T03:09:03.868Z,75.21
2022-11-18T03:11:38.166Z,75.27
2022-11-18T03:14:21.414Z,75.75
2022-11-18T03:16:59.698Z,75.42
2022-11-18T03:19:40.080Z,75.48
2022-11-18T03:22:14.683Z,76.64
2022-11-18T03:24:46.843Z,77.70
2022-11-18T03:27:21.829Z,77.68
2022-11-18T03:29:56.079Z,77.56
2022-11-18T03:32:28.511Z,77.77
2022-11-18T03:35:00.422Z,77.80
2022-11-18T03:37:30.498Z,77.98
2022-11-18T03:40:08.041Z,77.90
2022-11-18T03:42:40.496Z,77.59
2022-11-18T03:45:13.655Z,77.50
2022-11-18T03:47:47.108Z,77.76
2022-11-18T03:50:19.142Z,77.66
2022-11-18T03:52:50.080Z,77.49
2022-11-18T03:55:21.617Z,77.88
2022-11-18T03:57:55.625Z,77.79
2022-11-18T04:00:24.522Z,77.81
2022-11-18T04:02:53.935Z,78.15
2022-11-18T04:05:22.159Z,78.00
2022-11-18T04:07:57.566Z,77.88
2022-11-18T04:10:30.944Z,77.91
2022-11-18T04:13:06.389Z,77.87
2022-11-18T04:15:37.962Z,78.05
2022-11-18T04:18:07.456Z,77.64
2022-11-18T04:20:37.574Z,78.37
2022-11-18T04:23:05.814Z,78.38
2022-11-18T04:25:34.230Z,78.04
2022-11-18T04:28:02.196Z,78.01
2022-11-18T04:30:30.502Z,78.00
2022-11-18T04:32:58.811Z,78.72
2022-11-18T04:35:28.511Z,78.53
2022-11-18T04:37:56.446Z,78.21
2022-11-18T04:40:24.307Z,77.92
2022-11-18T04:42:52.190Z,77.86
2022-11-18T04:45:20.131Z,78.00
2022-11-18T04:47:48.085Z,77.98
2022-11-18T04:50:16.051Z,78.76
2022-11-18T04:52:45.287Z,78.93
2022-11-18T04:55:13.175Z,78.22
2022-11-18T04:57:41.085Z,78.04
2022-11-18T05:00:09.950Z,77.97
2022-11-18T05:02:37.900Z,77.64
2022-11-18T05:05:06.690Z,77.78
2022-11-18T05:07:34.659Z,77.77
2022-11-18T05:10:04.033Z,77.80
2022-11-18T05:12:49.201Z,77.96
2022-11-18T05:15:17.990Z,78.04
2022-11-18T05:17:46.211Z,77.89
2022-11-18T05:20:14.619Z,77.63
2022-11-18T05:22:42.944Z,78.37
2022-11-18T05:25:12.305Z,79.24
2022-11-18T05:27:40.258Z,78.83
2022-11-18T05:30:09.291Z,77.97
2022-11-18T05:32:37.211Z,78.27
2022-11-18T05:35:05.431Z,78.92
2022-11-18T05:37:34.183Z,78.71
2022-11-18T05:40:02.053Z,78.76
2022-11-18T05:42:48.945Z,78.02
2022-11-18T05:45:19.424Z,78.19
2022-11-18T05:48:04.504Z,78.92
2022-11-18T05:50:34.091Z,78.58
2022-11-18T05:53:02.679Z,79.26
2022-11-18T05:55:34.721Z,79.32
2022-11-18T05:58:04.534Z,78.75
2022-11-18T06:00:32.825Z,79.75
2022-11-18T06:03:01.994Z,79.85
2022-11-18T06:05:29.984Z,79.14
2022-11-18T06:07:59.177Z,78.85
2022-11-18T06:10:30.824Z,78.41
2022-11-18T06:13:02.640Z,79.43
2022-11-18T06:15:34.803Z,79.25
2022-11-18T06:18:07.622Z,79.07
2022-11-18T06:20:38.406Z,78.90
2022-11-18T06:23:08.924Z,78.46
2022-11-18T06:25:39.582Z,78.96
2022-11-18T06:28:07.718Z,79.10
2022-11-18T06:30:37.085Z,78.89
2022-11-18T06:33:05.232Z,78.48
2022-11-18T06:35:33.098Z,79.03
2022-11-18T06:38:01.116Z,78.76
2022-11-18T06:40:34.317Z,78.67
2022-11-18T06:43:24.372Z,78.74
2022-11-18T06:46:09.295Z,79.48
2022-11-18T06:48:37.515Z,79.85
2022-11-18T06:51:06.459Z,79.30
2022-11-18T06:53:34.898Z,79.45
2022-11-18T06:56:04.598Z,79.33
2022-11-18T06:58:32.746Z,79.56
2022-11-18T07:01:10.469Z,79.84
2022-11-18T07:03:38.567Z,79.56
2022-11-18T07:06:07.021Z,79.05
2022-11-18T07:08:36.732Z,79.58
2022-11-18T07:11:06.429Z,79.12
2022-11-18T07:13:37.022Z,79.07
2022-11-18T07:16:12.140Z,78.84
2022-11-18T07:18:41.728Z,78.81
2022-11-18T07:21:11.593Z,79.23
2022-11-18T07:23:39.604Z,78.57
2022-11-18T07:26:08.457Z,79.23
2022-11-18T07:28:37.079Z,79.02
2022-11-18T07:31:06.560Z,79.69
2022-11-18T07:33:36.570Z,79.79
2022-11-18T07:36:06.024Z,81.31
2022-11-18T07:38:33.933Z,79.76
2022-11-18T07:41:06.334Z,78.98
2022-11-18T07:43:35.484Z,78.71
2022-11-18T07:46:11.556Z,78.67
2022-11-18T07:48:40.986Z,78.68
2022-11-18T07:51:09.910Z,79.69
2022-11-18T07:53:38.790Z,79.32
2022-11-18T07:56:07.987Z,79.50
2022-11-18T07:58:36.298Z,79.17
2022-11-18T08:01:08.927Z,78.66
2022-11-18T08:03:36.878Z,78.45
2022-11-18T08:06:08.147Z,78.68
2022-11-18T08:08:36.448Z,78.89
2022-11-18T08:11:07.236Z,79.41
2022-11-18T08:13:35.757Z,78.32
2022-11-18T08:16:05.039Z,77.91
2022-11-18T08:18:33.783Z,77.93
2022-11-18T08:21:03.085Z,77.10
2022-11-18T08:23:37.411Z,76.98
2022-11-18T08:26:10.629Z,77.46
2022-11-18T08:28:39.016Z,77.30
2022-11-18T08:31:11.511Z,77.42
2022-11-18T08:33:39.975Z,77.53
2022-11-18T08:36:09.575Z,77.37
2022-11-18T08:38:38.940Z,77.04
2022-11-18T08:41:07.460Z,76.99
2022-11-18T08:43:36.838Z,77.23
2022-11-18T08:46:05.106Z,77.25
2022-11-18T08:48:33.074Z,76.82
2022-11-18T08:51:01.642Z,76.01
2022-11-18T08:53:29.575Z,77.13
2022-11-18T08:55:59.536Z,76.46
2022-11-18T08:58:28.209Z,76.21
2022-11-18T09:00:56.412Z,75.35
2022-11-18T09:03:24.855Z,75.96
2022-11-18T09:05:52.741Z,75.86
2022-11-18T09:08:22.022Z,75.52
2022-11-18T09:10:49.958Z,76.33
2022-11-18T09:13:47.498Z,75.78
2022-11-18T09:16:08.600Z,75.54
2022-11-18T09:18:36.853Z,75.09
2022-11-18T09:21:07.345Z,75.16
2022-11-18T09:23:37.990Z,76.07
2022-11-18T09:26:08.004Z,75.30
2022-11-18T09:28:38.001Z,75.06
2022-11-18T09:31:07.246Z,74.95
2022-11-18T09:33:35.603Z,74.41
2022-11-18T09:36:03.674Z,74.79
2022-11-18T09:38:32.103Z,74.92
2022-11-18T09:41:13.804Z,74.88
2022-11-18T09:43:52.510Z,75.87
2022-11-18T09:46:28.321Z,76.20
2022-11-18T09:49:14.327Z,75.40
2022-11-18T09:51:44.335Z,74.43
2022-11-18T09:54:16.341Z,74.58
2022-11-18T09:56:45.012Z,74.47
2022-11-18T09:59:15.833Z,74.38
2022-11-18T10:01:43.956Z,74.28
2022-11-18T10:04:16.929Z,73.89
2022-11-18T10:06:46.406Z,73.24
2022-11-18T10:09:38.834Z,73.75
2022-11-18T10:12:20.422Z,73.58
2022-11-18T10:15:01.223Z,73.44
2022-11-18T10:17:41.392Z,74.21
2022-11-18T10:20:26.555Z,74.01
2022-11-18T10:22:58.835Z,74.28
2022-11-18T10:25:27.254Z,73.74
2022-11-18T10:27:57.430Z,73.76
2022-11-18T10:30:27.842Z,73.15
2022-11-18T10:32:57.882Z,73.50
2022-11-18T10:35:29.410Z,72.90
2022-11-18T10:38:08.145Z,73.47
2022-11-18T10:40:41.089Z,73.92
2022-11-18T10:43:11.173Z,73.53
2022-11-18T10:45:40.990Z,73.29
2022-11-18T10:48:10.513Z,74.55
2022-11-18T10:50:40.630Z,75.55
2022-11-18T10:53:31.043Z,75.42
2022-11-18T10:56:00.905Z,76.12
2022-11-18T10:58:31.778Z,76.94
2022-11-18T11:01:08.405Z,78.44
2022-11-18T11:03:38.794Z,78.78
2022-11-18T11:06:23.269Z,79.47
2022-11-18T11:08:52.746Z,78.99
2022-11-18T11:11:28.566Z,77.23
2022-11-18T11:14:03.083Z,77.94
2022-11-18T11:16:35.130Z,79.00
2022-11-18T11:19:05.410Z,80.32
2022-11-18T11:21:33.343Z,78.33
2022-11-18T11:24:01.245Z,77.88
2022-11-18T11:29:41.621Z,80.98
2022-11-18T11:32:21.061Z,79.83
2022-11-18T11:34:56.398Z,80.12
2022-11-18T11:37:31.444Z,79.51
2022-11-18T11:40:16.236Z,78.16
2022-11-18T11:42:54.417Z,78.81
2022-11-18T11:45:33.227Z,77.88
2022-11-18T11:48:19.753Z,77.99
2022-11-18T11:51:03.327Z,78.68
2022-11-18T11:53:57.947Z,79.53
2022-11-18T11:56:34.531Z,79.70
2022-11-18T11:59:27.548Z,78.35
2022-11-18T12:02:04.367Z,78.07
2022-11-18T12:04:42.267Z,79.78
2022-11-18T12:07:18.076Z,79.33
2022-11-18T12:10:04.012Z,78.83
2022-11-18T12:12:39.265Z,77.61
2022-11-18T12:15:20.605Z,76.96
2022-11-18T12:17:57.497Z,77.03
2022-11-18T12:20:45.054Z,79.87
2022-11-18T12:23:18.437Z,80.88
2022-11-18T12:26:02.185Z,83.45
2022-11-18T12:28:33.277Z,83.10
2022-11-18T12:31:35.978Z,81.91
2022-11-18T12:34:21.421Z,80.40
2022-11-18T12:36:50.802Z,78.55
2022-11-18T12:39:58.474Z,79.57
2022-11-18T12:43:01.736Z,83.26
2022-11-18T12:45:57.077Z,83.24
2022-11-18T12:48:43.968Z,83.52
2022-11-18T12:51:41.605Z,82.84
2022-11-18T12:54:35.433Z,80.73
2022-11-18T12:57:05.592Z,78.90
2022-11-18T12:59:36.129Z,78.04
2022-11-18T13:02:24.137Z,77.36
2022-11-18T13:05:07.122Z,76.44
2022-11-18T13:07:59.818Z,79.45
2022-11-18T13:10:31.818Z,79.02
2022-11-18T13:13:00.390Z,77.90
2022-11-18T13:15:46.733Z,77.83
2022-11-18T13:18:16.944Z,75.88
2022-11-18T13:20:55.150Z,74.72
2022-11-18T13:23:46.687Z,73.82
2022-11-18T13:26:21.184Z,73.47
2022-11-18T13:29:12.242Z,73.21
2022-11-18T13:31:47.936Z,72.27
2022-11-18T13:34:20.066Z,74.06
2022-11-18T13:36:51.518Z,72.66
2022-11-18T13:39:24.107Z,71.33
2022-11-18T13:42:03.812Z,71.09
2022-11-18T13:44:33.637Z,71.07
2022-11-18T13:47:12.318Z,70.67
2022-11-18T13:49:53.661Z,70.39
2022-11-18T13:52:26.285Z,70.72
2022-11-18T13:54:57.002Z,70.18
2022-11-18T13:57:28.398Z,70.35
2022-11-18T14:00:00.772Z,70.92
2022-11-18T14:02:29.415Z,70.46
2022-11-18T14:04:59.880Z,70.52
2022-11-18T14:07:31.483Z,69.83
2022-11-18T14:10:02.253Z,70.46
2022-11-18T14:12:33.753Z,70.13
2022-11-18T14:15:16.362Z,69.83
2022-11-18T14:17:52.653Z,69.73
2022-11-18T14:20:21.264Z,69.09
2022-11-18T14:22:53.227Z,68.98
2022-11-18T14:25:25.579Z,69.35
2022-11-18T14:27:56.710Z,68.94
2022-11-18T14:30:36.829Z,68.59
2022-11-18T14:33:18.775Z,69.01
2022-11-18T14:35:50.829Z,68.26
2022-11-18T14:41:12.217Z,68.18
2022-11-18T14:43:42.913Z,68.43
2022-11-18T14:46:16.797Z,67.81
2022-11-18T14:48:45.263Z,67.67
2022-11-18T14:51:14.803Z,68.01
2022-11-18T14:53:42.931Z,67.93
2022-11-18T14:56:15.380Z,67.50
2022-11-18T14:58:44.745Z,67.12
2022-11-18T15:01:14.320Z,67.32
2022-11-18T15:03:42.343Z,66.99
2022-11-18T15:06:15.038Z,67.21
2022-11-18T15:08:44.136Z,67.92
2022-11-18T15:11:12.083Z,68.69
2022-11-18T15:13:40.423Z,68.37
2022-11-18T15:16:16.041Z,67.63
2022-11-18T15:18:45.064Z,68.00
2022-11-18T15:21:13.061Z,69.89
2022-11-18T15:23:41.036Z,68.44
2022-11-18T15:26:19.163Z,69.26
2022-11-18T15:28:47.766Z,69.03
2022-11-18T15:31:17.758Z,68.68
2022-11-18T15:33:46.497Z,68.59
2022-11-18T15:36:15.855Z,68.57
2022-11-18T15:38:44.033Z,68.66
2022-11-18T15:41:17.506Z,68.58
2022-11-18T15:43:45.830Z,69.29
2022-11-18T15:46:14.183Z,67.90
2022-11-18T15:48:43.794Z,70.47
2022-11-18T15:51:12.542Z,69.22
2022-11-18T15:53:40.729Z,67.51
2022-11-18T15:56:15.865Z,67.01
2022-11-18T15:58:43.857Z,66.41
2022-11-18T16:01:12.291Z,66.17
2022-11-18T16:03:40.313Z,67.12
2022-11-18T16:06:09.919Z,66.54
2022-11-18T16:08:37.849Z,66.36
2022-11-18T16:11:23.421Z,66.62
2022-11-18T16:13:51.365Z,65.90
2022-11-18T16:16:20.432Z,65.57
2022-11-18T16:18:48.406Z,64.98
2022-11-18T16:21:17.715Z,65.19
2022-11-18T16:23:45.889Z,65.62
2022-11-18T16:26:17.058Z,65.68
2022-11-18T16:28:45.242Z,64.96
2022-11-18T16:31:30.710Z,65.10
2022-11-18T16:33:58.660Z,65.06
2022-11-18T16:36:29.009Z,65.23
2022-11-18T16:38:57.137Z,64.54
2022-11-18T16:41:34.303Z,64.37
2022-11-18T16:44:04.668Z,65.21
2022-11-18T16:46:34.800Z,65.42
2022-11-18T16:49:03.007Z,64.36
2022-11-18T16:51:33.633Z,65.92
2022-11-18T16:54:04.373Z,64.93
2022-11-18T16:56:34.495Z,65.76
2022-11-18T16:59:04.061Z,66.58
2022-11-18T17:01:33.317Z,66.37
2022-11-18T17:04:01.691Z,66.04
2022-11-18T17:06:32.919Z,65.86
2022-11-18T17:09:01.493Z,66.16
2022-11-18T17:11:29.774Z,66.25
2022-11-18T17:13:58.412Z,66.19
2022-11-18T17:16:27.228Z,66.68
2022-11-18T17:18:56.796Z,66.50
2022-11-18T17:21:25.497Z,65.93
2022-11-18T17:23:55.532Z,66.10
2022-11-18T17:26:25.288Z,66.00
2022-11-18T17:28:53.457Z,66.22
2022-11-18T17:31:22.804Z,66.40
2022-11-18T17:33:52.919Z,67.13
2022-11-18T17:36:23.022Z,66.59
2022-11-18T17:38:52.943Z,66.17
2022-11-18T17:41:41.180Z,66.00
2022-11-18T17:44:10.837Z,66.76
2022-11-18T17:46:39.186Z,65.83
2022-11-18T17:49:11.841Z,65.68
2022-11-18T17:51:39.808Z,65.18
2022-11-18T17:54:08.104Z,65.06
2022-11-18T17:56:37.419Z,65.66
2022-11-18T17:59:05.437Z,65.09
2022-11-18T18:01:33.498Z,64.49
2022-11-18T18:04:01.483Z,64.41
2022-11-18T18:06:29.424Z,64.25
2022-11-18T18:08:57.680Z,64.87
2022-11-18T18:11:26.178Z,64.61
2022-11-18T18:14:12.809Z,64.35
2022-11-18T18:16:43.309Z,63.92
2022-11-18T18:19:13.350Z,64.52
2022-11-18T18:21:41.485Z,65.44
2022-11-18T18:24:10.468Z,64.55
2022-11-18T18:26:38.777Z,63.75
2022-11-18T18:29:08.108Z,64.10
2022-11-18T18:31:37.369Z,64.96
2022-11-18T18:34:05.768Z,64.23
2022-11-18T18:36:33.864Z,63.66
2022-11-18T18:39:02.654Z,63.17
2022-11-18T18:41:31.044Z,63.41
2022-11-18T18:43:59.598Z,62.44
2022-11-18T18:46:29.414Z,62.64
2022-11-18T18:48:59.873Z,62.48
2022-11-18T18:51:29.397Z,62.90
2022-11-18T18:53:57.752Z,63.57
2022-11-18T18:56:26.127Z,63.34
2022-11-18T18:58:54.031Z,63.53
2022-11-18T19:01:22.667Z,63.09
2022-11-18T19:03:55.414Z,63.58
2022-11-18T19:09:14.822Z,65.79
2022-11-18T19:12:00.788Z,64.71
2022-11-18T19:14:29.270Z,64.65
2022-11-18T19:16:57.712Z,64.51
2022-11-18T19:19:46.009Z,64.13
2022-11-18T19:22:15.949Z,64.37
2022-11-18T19:24:51.653Z,65.33
2022-11-18T19:27:23.887Z,64.62
2022-11-18T19:30:06.440Z,64.33
2022-11-18T19:32:42.506Z,64.89
2022-11-18T19:35:12.758Z,65.56
2022-11-18T19:37:40.653Z,64.63
2022-11-18T19:40:10.488Z,65.05
2022-11-18T19:42:39.731Z,65.05
2022-11-18T19:45:08.607Z,66.12
2022-11-18T19:47:36.680Z,67.03
2022-11-18T19:50:05.353Z,66.00
2022-11-18T19:52:34.698Z,66.36
2022-11-18T19:55:02.604Z,67.43
2022-11-18T19:57:30.521Z,69.12
2022-11-18T19:59:58.488Z,67.47
2022-11-18T20:02:26.580Z,68.30
2022-11-18T20:05:11.948Z,68.74
2022-11-18T20:07:41.478Z,69.53
2022-11-18T20:10:10.370Z,70.44
2022-11-18T20:12:38.324Z,68.79
2022-11-18T20:15:07.166Z,68.30
2022-11-18T20:17:35.100Z,67.44
2022-11-18T20:20:03.121Z,67.35
2022-11-18T20:22:31.123Z,66.88
2022-11-18T20:25:01.299Z,65.88
2022-11-18T20:27:29.228Z,65.12
2022-11-18T20:29:57.183Z,64.57
2022-11-18T20:32:25.101Z,64.87
2022-11-18T20:34:52.998Z,65.08
2022-11-18T20:37:26.706Z,64.69
2022-11-18T20:39:55.772Z,64.13
2022-11-18T20:42:44.129Z,64.73
2022-11-18T20:45:12.656Z,64.83
2022-11-18T20:47:40.550Z,63.70
2022-11-18T20:50:09.080Z,63.60
2022-11-18T20:52:37.014Z,62.91
2022-11-18T20:55:05.969Z,63.09
2022-11-18T20:57:35.424Z,62.63
2022-11-18T21:00:03.382Z,61.57
2022-11-18T21:02:31.391Z,60.19
2022-11-18T21:04:59.286Z,59.59
2022-11-18T21:07:27.523Z,61.03
2022-11-18T21:09:55.634Z,60.67
2022-11-18T21:12:23.618Z,60.95
2022-11-18T21:14:51.925Z,62.15
2022-11-18T21:17:19.943Z,62.18
2022-11-18T21:19:48.677Z,63.09
2022-11-18T21:22:15.892Z,63.39
2022-11-18T21:24:43.962Z,63.17
2022-11-18T21:27:11.885Z,64.71
2022-11-18T21:29:41.576Z,64.10
2022-11-18T21:32:11.509Z,63.27
2022-11-18T21:34:39.699Z,64.72
2022-11-18T21:37:08.024Z,67.36
2022-11-18T21:39:36.012Z,68.18
2022-11-18T21:42:04.046Z,68.93
2022-11-18T21:44:32.160Z,68.22
2022-11-18T21:47:00.077Z,69.04
2022-11-18T21:49:30.561Z,68.79
2022-11-18T21:51:58.665Z,69.63
2022-11-18T21:54:26.599Z,68.32
2022-11-18T21:56:54.654Z,68.68
2022-11-18T21:59:23.757Z,70.62
2022-11-18T22:01:51.828Z,69.55
2022-11-18T22:04:33.854Z,69.42
2022-11-18T22:07:05.506Z,71.39
2022-11-18T22:09:36.736Z,71.15
2022-11-18T22:12:07.579Z,70.37
2022-11-18T22:14:36.172Z,69.62
2022-11-18T22:17:04.619Z,71.48
2022-11-18T22:19:32.609Z,71.51
2022-11-18T22:22:01.409Z,73.67
2022-11-18T22:24:31.205Z,73.25
2022-11-18T22:26:59.499Z,73.43
2022-11-18T22:29:27.684Z,73.06
2022-11-18T22:31:55.608Z,71.94
2022-11-18T22:34:23.507Z,71.88
2022-11-18T22:36:51.403Z,70.91
2022-11-18T22:39:19.607Z,73.76
2022-11-18T22:42:06.378Z,73.86
2022-11-18T22:44:34.296Z,75.25
2022-11-18T22:47:02.221Z,75.15
2022-11-18T22:49:30.217Z,74.76
2022-11-18T22:51:58.135Z,74.25
2022-11-18T22:54:41.423Z,74.42
2022-11-18T22:57:10.823Z,73.65
2022-11-18T22:59:38.954Z,72.63
2022-11-18T23:02:07.256Z,73.32
2022-11-18T23:04:35.403Z,73.79
2022-11-18T23:07:03.438Z,73.81
2022-11-18T23:09:31.543Z,74.65
2022-11-18T23:12:16.936Z,76.35
2022-11-18T23:14:46.364Z,76.69
2022-11-18T23:17:15.932Z,76.70
2022-11-18T23:19:44.287Z,75.12
2022-11-18T23:22:12.548Z,74.16
2022-11-18T23:24:40.573Z,74.36
2022-11-18T23:27:08.596Z,73.90
2022-11-18T23:29:36.544Z,74.38
2022-11-18T23:32:06.457Z,73.68
2022-11-18T23:34:34.383Z,74.65
2022-11-18T23:37:02.845Z,75.56
2022-11-18T23:39:31.056Z,75.41
2022-11-18T23:41:59.177Z,74.25
2022-11-18T23:44:41.236Z,74.01
2022-11-18T23:47:10.945Z,71.42
2022-11-18T23:49:39.125Z,69.87
2022-11-18T23:52:07.159Z,69.10
2022-11-18T23:54:35.038Z,69.71
2022-11-18T23:57:04.561Z,69.52
2022-11-18T23:59:33.408Z,70.36
